Weather History for Chandler, OK

Change the Weather History Date:

Friday, November 2, 2012

  Actual Average (KCUH) Record (KCUH)
Temperature  
Mean Temperature 69 °F -  
Max Temperature 87 °F 65 °F 86 °F (2012)
Min Temperature 51 °F 42 °F 19 °F (1954)
Cooling Degree Days 4    
Growing Degree Days 19 (Base 50)    
Moisture  
Dew Point 54 °F    
Average Humidity 63    
Maximum Humidity 94    
Minimum Humidity 31    
Precipitation  
Precipitation 0.00 in - - ()
Sea Level Pressure  
Sea Level Pressure 29.88 in    
Wind  
Wind Speed 8 mph (South)    
Max Wind Speed 23 mph    
Max Gust Speed 30 mph    
Visibility 10 miles    
Events      
Averages and records for this station are not official NWS values.
T = Trace of Precipitation, MM = Missing Value Source: NWS Daily Summary

Daily Weather History Graph

Daily Weather History Graph

Search for Another Location

Airport:

Trip Planner

Search our weather history database for the weather conditions in past years. The results will help you decide how hot, cold, wet, or windy it might be!

Date:

Astronomy

Nov. 02, 2012 Rise Set
Actual Time 7:50 AM CDT 6:30 PM CDT
Civil Twilight 7:24 AM CDT 6:56 PM CDT
Nautical Twilight 6:54 AM CDT 7:27 PM CDT
Astronomical Twilight 6:24 AM CDT 7:56 PM CDT
Moon 9:22 PM CDT (11/2) 11:08 AM CDT (11/2)
Length of Visible Light 11h 32m
Length of Day
10h 39m
Waning Gibbous, 87% of the Moon is Illuminated
Nov 2
Waning Gibbous
Nov 6
Last Quarter
Nov 13
New
Nov 20
First Quarter
Nov 28
Full

Hourly Weather History & Observations

Time (CDT) Temp. Heat Index Dew Point Humidity Pressure Visibility Wind Dir Wind Speed Gust Speed Precip Events Conditions
12:15 AM 59.0 °F - 50.0 °F 72% 29.93 in 10.0 mi SE 4.6 mph - N/A   Clear
12:35 AM 59.0 °F - 50.0 °F 72% 29.93 in 10.0 mi ESE 5.8 mph - N/A   Clear
12:55 AM 59.0 °F - 50.0 °F 72% 29.93 in 10.0 mi ESE 5.8 mph - N/A   Clear
1:15 AM 59.0 °F - 50.0 °F 72% 29.92 in 10.0 mi ESE 5.8 mph - N/A   Clear
1:35 AM 57.2 °F - 50.0 °F 77% 29.92 in 10.0 mi ESE 5.8 mph - N/A   Clear
1:55 AM 57.2 °F - 50.0 °F 77% 29.91 in 10.0 mi SE 4.6 mph - N/A   Clear
2:15 AM 55.4 °F - 50.0 °F 82% 29.91 in 10.0 mi SE 4.6 mph - N/A   Clear
2:35 AM 55.4 °F - 50.0 °F 82% 29.91 in 10.0 mi SE 4.6 mph - N/A   Clear
2:55 AM 55.4 °F - 50.0 °F 82% 29.91 in 10.0 mi SE 4.6 mph - N/A   Clear
3:15 AM 53.6 °F - 50.0 °F 88% 29.90 in 10.0 mi SE 3.5 mph - N/A   Clear
3:35 AM 53.6 °F - 50.0 °F 88% 29.90 in 10.0 mi SE 3.5 mph - N/A   Clear
3:55 AM 53.6 °F - 50.0 °F 88% 29.90 in 10.0 mi SSE 3.5 mph - N/A   Clear
4:15 AM 53.6 °F - 50.0 °F 88% 29.89 in 10.0 mi SSE 4.6 mph - N/A   Clear
4:35 AM 53.6 °F - 50.0 °F 88% 29.89 in 10.0 mi SE 3.5 mph - N/A   Clear
4:55 AM 53.6 °F - 50.0 °F 88% 29.89 in 10.0 mi SSE 5.8 mph - N/A   Clear
5:15 AM 53.6 °F - 50.0 °F 88% 29.89 in 10.0 mi SE 5.8 mph - N/A   Clear
5:35 AM 53.6 °F - 50.0 °F 88% 29.90 in 10.0 mi SE 4.6 mph - N/A   Clear
5:55 AM 51.8 °F - 50.0 °F 94% 29.90 in 10.0 mi SE 5.8 mph - N/A   Clear
6:15 AM 53.6 °F - 50.0 °F 88% 29.89 in 10.0 mi SE 5.8 mph - N/A   Clear
6:35 AM 53.6 °F - 50.0 °F 88% 29.89 in 10.0 mi SE 4.6 mph - N/A   Clear
6:55 AM 51.8 °F - 50.0 °F 94% 29.89 in 10.0 mi SE 5.8 mph - N/A   Clear
7:15 AM 51.8 °F - 50.0 °F 94% 29.89 in 10.0 mi SE 5.8 mph - N/A   Clear
7:35 AM 51.8 °F - 50.0 °F 94% 29.89 in 7.0 mi SSE 5.8 mph - N/A   Clear
7:55 AM 51.8 °F - 50.0 °F 94% 29.90 in 10.0 mi SSE 4.6 mph - N/A   Clear
8:55 AM 53.6 °F - 51.8 °F 94% 29.91 in 10.0 mi SSE 3.5 mph - N/A   Clear
9:15 AM 59.0 °F - 53.6 °F 82% 29.91 in 10.0 mi South 5.8 mph - N/A   Clear
9:35 AM 60.8 °F - 53.6 °F 77% 29.91 in 10.0 mi South 5.8 mph - N/A   Clear
9:55 AM 62.6 °F - 53.6 °F 72% 29.92 in 10.0 mi SSW 5.8 mph - N/A   Clear
10:15 AM 66.2 °F - 55.4 °F 68% 29.92 in 10.0 mi SW 8.1 mph - N/A   Clear
10:35 AM 69.8 °F - 55.4 °F 60% 29.92 in 10.0 mi SW 6.9 mph - N/A   Clear
10:55 AM 73.4 °F - 59.0 °F 61% 29.92 in 10.0 mi SW 8.1 mph - N/A   Clear
11:15 AM 77.0 °F - 59.0 °F 54% 29.91 in 10.0 mi WSW 9.2 mph 16.1 mph N/A   Clear
11:35 AM 80.6 °F 81.1 °F 59.0 °F 48% 29.92 in 10.0 mi WSW 12.7 mph 18.4 mph N/A   Clear
11:55 AM 82.4 °F 82.9 °F 60.8 °F 48% 29.91 in 10.0 mi WSW 12.7 mph 20.7 mph N/A   Clear
12:15 PM 82.4 °F 82.9 °F 60.8 °F 48% 29.90 in 10.0 mi SW 16.1 mph - N/A   Clear
12:35 PM 84.2 °F 83.8 °F 59.0 °F 42% 29.90 in 10.0 mi SW 16.1 mph 23.0 mph N/A   Clear
12:55 PM 86.0 °F 85.4 °F 59.0 °F 40% 29.89 in 10.0 mi SW 16.1 mph 23.0 mph N/A   Clear
1:15 PM 86.0 °F 85.4 °F 59.0 °F 40% 29.88 in 10.0 mi SW 18.4 mph 28.8 mph N/A   Clear
1:35 PM 86.0 °F 85.4 °F 59.0 °F 40% 29.88 in 10.0 mi WSW 16.1 mph 27.6 mph N/A   Clear
1:55 PM 86.0 °F 85.4 °F 59.0 °F 40% 29.87 in 10.0 mi SW 18.4 mph 23.0 mph N/A   Clear
2:15 PM 86.0 °F 84.9 °F 57.2 °F 37% 29.86 in 10.0 mi SW 16.1 mph 26.5 mph N/A   Clear
2:35 PM 86.0 °F 84.9 °F 57.2 °F 37% 29.85 in 10.0 mi SSW 18.4 mph 28.8 mph N/A   Clear
2:55 PM 86.0 °F 84.9 °F 57.2 °F 37% 29.84 in 10.0 mi SSW 19.6 mph 29.9 mph N/A   Clear
3:15 PM 87.8 °F 86.1 °F 55.4 °F 33% 29.84 in 10.0 mi SSW 16.1 mph 25.3 mph N/A   Clear
3:35 PM 87.8 °F 86.1 °F 55.4 °F 33% 29.83 in 10.0 mi SSW 23.0 mph 28.8 mph N/A   Clear
3:55 PM 87.8 °F 85.7 °F 53.6 °F 31% 29.83 in 10.0 mi SSW 17.3 mph 25.3 mph N/A   Clear
4:15 PM 86.0 °F 84.2 °F 53.6 °F 33% 29.83 in 10.0 mi SW 15.0 mph 23.0 mph N/A   Clear
4:35 PM 86.0 °F 84.5 °F 55.4 °F 35% 29.82 in 10.0 mi SW 18.4 mph 24.2 mph N/A   Clear
4:55 PM 86.0 °F 84.5 °F 55.4 °F 35% 29.82 in 10.0 mi SSW 18.4 mph 27.6 mph N/A   Clear
5:15 PM 86.0 °F 84.5 °F 55.4 °F 35% 29.82 in 10.0 mi SSW 16.1 mph 20.7 mph N/A   Clear
5:35 PM 84.2 °F 83.0 °F 55.4 °F 37% 29.82 in 10.0 mi SSW 11.5 mph 17.3 mph N/A   Clear
5:55 PM 82.4 °F 81.7 °F 55.4 °F 39% 29.82 in 10.0 mi SSW 15.0 mph 21.9 mph N/A   Clear
6:15 PM 82.4 °F 81.7 °F 55.4 °F 39% 29.82 in 10.0 mi SSW 11.5 mph 19.6 mph N/A   Clear
6:35 PM 78.8 °F - 53.6 °F 42% 29.82 in 10.0 mi SSW 10.4 mph - N/A   Clear
6:55 PM 78.8 °F - 53.6 °F 42% 29.83 in 10.0 mi SSW 6.9 mph - N/A   Clear
7:15 PM 77.0 °F - 55.4 °F 47% 29.85 in 10.0 mi SW 5.8 mph - N/A   Clear
7:35 PM 73.4 °F - 55.4 °F 53% 29.85 in 10.0 mi SSW 8.1 mph - N/A   Clear
7:55 PM 73.4 °F - 55.4 °F 53% 29.85 in 10.0 mi SSW 6.9 mph - N/A   Clear
8:15 PM 71.6 °F - 55.4 °F 57% 29.86 in 10.0 mi SSW 5.8 mph - N/A   Clear
8:35 PM 69.8 °F - 55.4 °F 60% 29.85 in 10.0 mi South 6.9 mph - N/A   Clear
8:55 PM 69.8 °F - 55.4 °F 60% 29.85 in 10.0 mi South 6.9 mph - N/A   Clear
9:15 PM 69.8 °F - 55.4 °F 60% 29.85 in 10.0 mi South 6.9 mph - N/A   Clear
9:35 PM 69.8 °F - 55.4 °F 60% 29.86 in 10.0 mi SSW 6.9 mph - N/A   Clear
9:55 PM 68.0 °F - 55.4 °F 64% 29.87 in 10.0 mi SSW 6.9 mph - N/A   Clear
10:15 PM 69.8 °F - 55.4 °F 60% 29.90 in 10.0 mi West 5.8 mph - N/A   Clear
10:35 PM 68.0 °F - 55.4 °F 64% 29.91 in 10.0 mi WNW 3.5 mph - N/A   Clear
10:55 PM 68.0 °F - 55.4 °F 64% 29.91 in 10.0 mi West 4.6 mph - N/A   Clear
11:15 PM 68.0 °F - 55.4 °F 64% 29.92 in 10.0 mi West 5.8 mph - N/A   Clear
11:35 PM 68.0 °F - 51.8 °F 56% 29.93 in 10.0 mi WNW 8.1 mph - N/A   Clear
11:55 PM 64.4 °F - 50.0 °F 59% 29.93 in 10.0 mi NW 6.9 mph - N/A   Clear